Time;durP1;ratioP1;P1;durP2;ratioP2;P2;SDS_P1;SDS_P2;PMS_P1;PMS_P2;Temp;Humidity;BMP_temperature;BMP_pressure;BME280_temperature;BME280_humidity;BME280_pressure;Samples;Min_cycle;Max_cycle;Signal;HPM_P1;HPM_P2
2022/06/09 00:00:21;;;;;;;;;;;;;;;-145.88;100.00;58037.16;2058242;28;1183;-67
2022/06/09 00:01:27;;;;;;;;;;;;;;;-145.88;100.00;58037.16;2058668;28;1097;-67
2022/06/09 00:02:30;;;;;;;;;;;;;;;-145.88;100.00;58037.16;2058290;28;1582;-68
2022/06/09 00:03:35;;;;;;;;;;;;;;;-145.88;100.00;58037.16;2058378;28;1127;-67
2022/06/09 00:04:40;;;;;;;;;;;;;;;-145.88;100.00;58037.16;2058273;28;1258;-67
2022/06/09 00:05:42;;;;;;;;;;;;;;;-145.88;100.00;58037.16;2063876;28;1788;-67
2022/06/09 00:06:47;;;;;;;;;;;;;;;-145.88;100.00;58037.16;2061276;28;1528;-67
2022/06/09 00:07:50;;;;;;;;;;;;;;;-145.88;100.00;58037.16;2064662;28;1753;-68
2022/06/09 00:08:54;;;;;;;;;;;;;;;-145.88;100.00;58037.16;2066525;28;1973;-69
2022/06/09 00:09:58;;;;;;;;;;;;;;;-145.88;100.00;58037.16;2061761;28;1190;-65
2022/06/09 00:11:02;;;;;;;;;;;;;;;-145.88;100.00;58037.16;2061874;28;1135;-67
2022/06/09 00:12:06;;;;;;;;;;;;;;;-145.88;100.00;58037.16;2062985;28;1550;-67
2022/06/09 00:13:07;;;;;;;;;;;;;;;-145.88;100.00;58037.16;2058433;28;1106;-67
2022/06/09 00:14:11;;;;;;;;;;;;;;;-145.88;100.00;58037.16;2058648;28;1079;-68
2022/06/09 00:15:13;;;;;;;;;;;;;;;-145.88;100.00;58037.16;2058174;28;1084;-67
2022/06/09 00:16:16;;;;;;;;;;;;;;;-145.88;100.00;58037.16;2058371;28;1106;-67
2022/06/09 00:17:19;;;;;;;;;;;;;;;-145.88;100.00;58037.16;2058182;28;1773;-67
2022/06/09 00:18:22;;;;;;;;;;;;;;;-145.88;100.00;58037.16;2065895;28;1490;-69
2022/06/09 00:19:25;;;;;;;;;;;;;;;-145.88;100.00;58037.16;2062786;28;1612;-67
2022/06/09 00:20:28;;;;;;;;;;;;;;;-145.88;100.00;58037.16;2058424;28;1094;-67
2022/06/09 00:21:31;;;;;;;;;;;;;;;-145.88;100.00;58037.16;2058009;28;1733;-66
2022/06/09 00:22:33;;;;;;;;;;;;;;;-145.88;100.00;58037.16;2059544;28;1539;-68
2022/06/09 00:23:36;;;;;;;;;;;;;;;-145.88;100.00;58037.16;2065572;28;1736;-67
2022/06/09 00:24:38;;;;;;;;;;;;;;;-145.88;100.00;58037.16;2065188;28;1473;-66
2022/06/09 00:25:41;;;;;;;;;;;;;;;-145.88;100.00;58037.16;2065851;28;1844;-68
2022/06/09 00:26:42;;;;;;;;;;;;;;;-145.88;100.00;58037.16;2066464;28;1010;-67
2022/06/09 00:27:45;;;;;;;;;;;;;;;-145.88;100.00;58037.16;2064282;28;1766;-67
2022/06/09 00:28:47;;;;;;;;;;;;;;;-145.88;100.00;58037.16;2058128;28;1991;-67
2022/06/09 00:29:50;;;;;;;;;;;;;;;-145.88;100.00;58037.16;2066237;28;1186;-66
2022/06/09 00:30:52;;;;;;;;;;;;;;;-145.88;100.00;58037.16;2066277;28;1382;-68
2022/06/09 00:31:55;;;;;;;;;;;;;;;-145.88;100.00;58037.16;2063730;28;1776;-67
2022/06/09 00:32:57;;;;;;;;;;;;;;;-145.88;100.00;58037.16;2053817;28;1201;-67
2022/06/09 00:34:00;;;;;;;;;;;;;;;-145.88;100.00;58037.16;2055392;28;1781;-67
2022/06/09 00:35:02;;;;;;;;;;;;;;;-145.88;100.00;58037.16;2065556;28;1508;-69
2022/06/09 00:36:07;;;;;;;;;;;;;;;-145.88;100.00;58037.16;2065889;28;1134;-69
2022/06/09 00:37:09;;;;;;;;;;;;;;;-145.88;100.00;58037.16;2065911;28;1178;-68
2022/06/09 00:38:11;;;;;;;;;;;;;;;-145.88;100.00;58037.16;2066050;28;1097;-71
2022/06/09 00:39:13;;;;;;;;;;;;;;;-145.88;100.00;58037.16;2065844;28;1046;-67
2022/06/09 00:40:16;;;;;;;;;;;;;;;-145.88;100.00;58037.16;2066058;28;1185;-68
2022/06/09 00:41:18;;;;;;;;;;;;;;;-145.88;100.00;58037.16;2065368;28;1439;-68
2022/06/09 00:42:21;;;;;;;;;;;;;;;-145.88;100.00;58037.16;2063796;28;1692;-69
2022/06/09 00:43:24;;;;;;;;;;;;;;;-145.88;100.00;58037.16;2066115;28;1057;-68
2022/06/09 00:44:28;;;;;;;;;;;;;;;-145.88;100.00;58037.16;2056726;28;1763;-67
2022/06/09 00:45:32;;;;;;;;;;;;;;;-145.88;100.00;58037.16;2065493;28;1224;-67
2022/06/09 00:46:38;;;;;;;;;;;;;;;-145.88;100.00;58037.16;2065904;28;1115;-67
2022/06/09 00:47:40;;;;;;;;;;;;;;;-145.88;100.00;58037.16;2065864;28;1714;-67
2022/06/09 00:48:44;;;;;;;;;;;;;;;-145.88;100.00;58037.16;2063375;28;1895;-68
2022/06/09 00:49:51;;;;;;;;;;;;;;;-145.88;100.00;58037.16;2066083;28;995;-67
2022/06/09 00:51:02;;;;;;;;;;;;;;;-145.88;100.00;58037.16;2064219;28;1851;-68
2022/06/09 00:52:10;;;;;;;;;;;;;;;-145.88;100.00;58037.16;2059127;28;1576;-68
2022/06/09 00:53:14;;;;;;;;;;;;;;;-145.88;100.00;58037.16;2062542;28;1797;-67
2022/06/09 00:54:19;;;;;;;;;;;;;;;-145.88;100.00;58037.16;2061008;28;1816;-68
2022/06/09 00:55:22;;;;;;;;;;;;;;;-145.88;100.00;58037.16;2057051;28;1635;-67
2022/06/09 00:56:26;;;;;;;;;;;;;;;-145.88;100.00;58037.16;2061055;28;1555;-70
2022/06/09 00:57:30;;;;;;;;;;;;;;;-145.88;100.00;58037.16;2065325;28;1532;-68
2022/06/09 00:58:35;;;;;;;;;;;;;;;-145.88;100.00;58037.16;2063843;28;1703;-68
2022/06/09 00:59:38;;;;;;;;;;;;;;;-145.88;100.00;58037.16;2057969;28;1335;-67
2022/06/09 01:00:45;;;;;;;;;;;;;;;-145.88;100.00;58037.16;2060863;28;1770;-67
2022/06/09 01:01:47;;;;;;;;;;;;;;;-145.88;100.00;58037.16;2064874;28;1721;-67
2022/06/09 01:02:50;;;;;;;;;;;;;;;-145.88;100.00;58037.16;2065397;28;1890;-67
2022/06/09 01:03:56;;;;;;;;;;;;;;;-145.88;100.00;58037.16;2066066;28;1107;-67
2022/06/09 01:05:02;;;;;;;;;;;;;;;-145.88;100.00;58037.16;2065969;28;1305;-67
2022/06/09 01:06:06;;;;;;;;;;;;;;;-145.88;100.00;58037.16;2066008;28;1026;-67
2022/06/09 01:07:12;;;;;;;;;;;;;;;-145.88;100.00;58037.16;2059410;28;1130;-66
2022/06/09 01:08:14;;;;;;;;;;;;;;;-145.88;100.00;58037.16;2066073;28;1066;-67
2022/06/09 01:09:18;;;;;;;;;;;;;;;-145.88;100.00;58037.16;2065498;28;1926;-67
2022/06/09 01:10:20;;;;;;;;;;;;;;;-145.88;100.00;58037.16;2066106;28;1031;-67
2022/06/09 01:11:24;;;;;;;;;;;;;;;-145.88;100.00;58037.16;2065932;28;1127;-67
2022/06/09 01:12:27;;;;;;;;;;;;;;;-145.88;100.00;58037.16;2065496;28;1528;-64
2022/06/09 01:13:30;;;;;;;;;;;;;;;-145.88;100.00;58037.16;2069804;28;1689;-64
2022/06/09 01:14:32;;;;;;;;;;;;;;;-145.88;100.00;58037.16;2068282;28;1668;-63
2022/06/09 01:15:50;;;;;;;;;;;;;;;-145.88;100.00;58037.16;2066005;28;1138;-66
2022/06/09 01:17:01;;;;;;;;;;;;;;;-145.88;100.00;58037.16;2065957;28;1110;-64
2022/06/09 01:18:10;;;;;;;;;;;;;;;-145.88;100.00;58037.16;2056542;28;1763;-65
2022/06/09 01:19:22;;;;;;;;;;;;;;;-145.88;100.00;58037.16;2056881;28;1675;-66
2022/06/09 01:20:32;;;;;;;;;;;;;;;-145.88;100.00;58037.16;2065926;28;1020;-64
2022/06/09 01:21:48;;;;;;;;;;;;;;;-145.88;100.00;58037.16;2065937;28;1313;-64
2022/06/09 01:23:06;;;;;;;;;;;;;;;-145.88;100.00;58037.16;2058438;28;1508;-63
2022/06/09 01:24:37;;;;;;;;;;;;;;;-145.88;100.00;58037.16;2057638;28;1000;-64
2022/06/09 01:26:10;;;;;;;;;;;;;;;-145.88;100.00;58037.16;2058849;28;1729;-64
2022/06/09 01:27:15;;;;;;;;;;;;;;;-145.88;100.00;58037.16;2059052;28;1575;-64
2022/06/09 01:28:37;;;;;;;;;;;;;;;-145.88;100.00;58037.16;2062464;28;1828;-67
2022/06/09 01:29:42;;;;;;;;;;;;;;;-145.88;100.00;58037.16;2060814;28;1985;-63
2022/06/09 01:30:51;;;;;;;;;;;;;;;-145.88;100.00;58037.16;2061731;28;1078;-63
2022/06/09 01:31:58;;;;;;;;;;;;;;;-145.88;100.00;58037.16;2065352;28;1810;-63
2022/06/09 01:33:08;;;;;;;;;;;;;;;-145.88;100.00;58037.16;2065640;28;1182;-64
2022/06/09 01:34:14;;;;;;;;;;;;;;;-145.88;100.00;58037.16;2065418;28;1694;-65
2022/06/09 01:35:22;;;;;;;;;;;;;;;-145.88;100.00;58037.16;2065151;28;1592;-64
2022/06/09 01:36:26;;;;;;;;;;;;;;;-145.88;100.00;58037.16;2057854;28;1015;-63
2022/06/09 01:37:31;;;;;;;;;;;;;;;-145.88;100.00;58037.16;2057634;28;1123;-63
2022/06/09 01:38:43;;;;;;;;;;;;;;;-145.88;100.00;58037.16;2062439;28;1710;-64
2022/06/09 01:39:48;;;;;;;;;;;;;;;-145.88;100.00;58037.16;2059808;28;1594;-64
2022/06/09 01:40:49;;;;;;;;;;;;;;;-145.88;100.00;58037.16;2053709;28;1386;-64
2022/06/09 01:41:52;;;;;;;;;;;;;;;-145.88;100.00;58037.16;2055208;28;1544;-66
2022/06/09 01:42:55;;;;;;;;;;;;;;;-145.88;100.00;58037.16;2063193;28;1720;-63
2022/06/09 01:43:58;;;;;;;;;;;;;;;-145.88;100.00;58037.16;2064409;28;2148;-64
2022/06/09 01:45:03;;;;;;;;;;;;;;;-145.88;100.00;58037.16;2057695;28;988;-64
2022/06/09 01:46:09;;;;;;;;;;;;;;;-145.88;100.00;58037.16;2064475;28;1570;-63
2022/06/09 01:47:12;;;;;;;;;;;;;;;-145.88;100.00;58037.16;2064185;28;1769;-64
2022/06/09 01:48:16;;;;;;;;;;;;;;;-145.88;100.00;58037.16;2057621;28;1011;-63
2022/06/09 01:49:21;;;;;;;;;;;;;;;-145.88;100.00;58037.16;2057515;28;1072;-63
2022/06/09 01:50:26;;;;;;;;;;;;;;;-145.88;100.00;58037.16;2057402;28;1974;-64
2022/06/09 01:51:29;;;;;;;;;;;;;;;-145.88;100.00;58037.16;2057534;28;1135;-64
2022/06/09 01:52:32;;;;;;;;;;;;;;;-145.88;100.00;58037.16;2055762;28;1505;-65
2022/06/09 01:53:37;;;;;;;;;;;;;;;-145.88;100.00;58037.16;2062795;28;1522;-64
2022/06/09 01:54:39;;;;;;;;;;;;;;;-145.88;100.00;58037.16;2064394;28;1542;-64
2022/06/09 01:55:43;;;;;;;;;;;;;;;-145.88;100.00;58037.16;2065766;28;1059;-65
2022/06/09 01:56:48;;;;;;;;;;;;;;;-145.88;100.00;58037.16;2062017;28;1591;-66
2022/06/09 01:57:52;;;;;;;;;;;;;;;-145.88;100.00;58037.16;2057479;28;1479;-64
2022/06/09 01:58:57;;;;;;;;;;;;;;;-145.88;100.00;58037.16;2059922;28;1496;-64
2022/06/09 02:00:01;;;;;;;;;;;;;;;-145.88;100.00;58037.16;2065257;28;1154;-67
2022/06/09 02:01:04;;;;;;;;;;;;;;;-145.88;100.00;58037.16;2057145;28;1306;-64
2022/06/09 02:02:12;;;;;;;;;;;;;;;-145.88;100.00;58037.16;2057511;28;1508;-65
2022/06/09 02:03:17;;;;;;;;;;;;;;;-145.88;100.00;58037.16;2055560;28;1019;-65
2022/06/09 02:04:23;;;;;;;;;;;;;;;-145.88;100.00;58037.16;2053303;28;1084;-64
2022/06/09 02:05:26;;;;;;;;;;;;;;;-145.88;100.00;58037.16;2057178;28;1198;-64
2022/06/09 02:06:30;;;;;;;;;;;;;;;-145.88;100.00;58037.16;2060528;28;1655;-64
2022/06/09 02:07:33;;;;;;;;;;;;;;;-145.88;100.00;58037.16;2062574;28;1700;-65
2022/06/09 02:08:36;;;;;;;;;;;;;;;-145.88;100.00;58037.16;2065294;28;1123;-64
2022/06/09 02:09:38;;;;;;;;;;;;;;;-145.88;100.00;58037.16;2065411;28;1039;-64
2022/06/09 02:10:43;;;;;;;;;;;;;;;-145.88;100.00;58037.16;2065448;28;1991;-64
2022/06/09 02:11:45;;;;;;;;;;;;;;;-145.88;100.00;58037.16;2065769;28;1089;-64
2022/06/09 02:12:50;;;;;;;;;;;;;;;-145.88;100.00;58037.16;2063398;28;1547;-64
2022/06/09 02:13:52;;;;;;;;;;;;;;;-145.88;100.00;58037.16;2065655;28;1062;-67
2022/06/09 02:14:58;;;;;;;;;;;;;;;-145.88;100.00;58037.16;2060978;28;1814;-64
2022/06/09 02:16:01;;;;;;;;;;;;;;;-145.88;100.00;58037.16;2053126;28;1153;-63
2022/06/09 02:17:06;;;;;;;;;;;;;;;-145.88;100.00;58037.16;2057750;28;1107;-64
2022/06/09 02:18:11;;;;;;;;;;;;;;;-145.88;100.00;58037.16;2057346;28;1538;-64
2022/06/09 02:19:14;;;;;;;;;;;;;;;-145.88;100.00;58037.16;2064455;28;1541;-64
2022/06/09 02:20:17;;;;;;;;;;;;;;;-145.88;100.00;58037.16;2064282;28;1457;-63
2022/06/09 02:21:23;;;;;;;;;;;;;;;-145.88;100.00;58037.16;2065418;28;1630;-64
2022/06/09 02:22:25;;;;;;;;;;;;;;;-145.88;100.00;58037.16;2063424;28;1498;-64
2022/06/09 02:23:29;;;;;;;;;;;;;;;-145.88;100.00;58037.16;2057215;28;1178;-64
2022/06/09 02:24:32;;;;;;;;;;;;;;;-145.88;100.00;58037.16;2057649;28;1002;-64
2022/06/09 02:25:35;;;;;;;;;;;;;;;-145.88;100.00;58037.16;2057473;28;956;-63
2022/06/09 02:26:38;;;;;;;;;;;;;;;-145.88;100.00;58037.16;2055950;28;1525;-65
2022/06/09 02:27:39;;;;;;;;;;;;;;;-145.88;100.00;58037.16;2061309;28;1529;-63
2022/06/09 02:28:42;;;;;;;;;;;;;;;-145.88;100.00;58037.16;2057367;28;1714;-64
2022/06/09 02:29:44;;;;;;;;;;;;;;;-145.88;100.00;58037.16;2057140;28;1135;-64
2022/06/09 02:30:47;;;;;;;;;;;;;;;-145.88;100.00;58037.16;2057169;28;1922;-65
2022/06/09 02:31:50;;;;;;;;;;;;;;;-145.88;100.00;58037.16;2057476;28;1173;-63
2022/06/09 02:32:53;;;;;;;;;;;;;;;-145.88;100.00;58037.16;2063535;28;1577;-64
2022/06/09 02:33:57;;;;;;;;;;;;;;;-145.88;100.00;58037.16;2064121;28;1503;-63
2022/06/09 02:34:59;;;;;;;;;;;;;;;-145.88;100.00;58037.16;2064693;28;1664;-64
2022/06/09 02:36:01;;;;;;;;;;;;;;;-145.88;100.00;58037.16;2065532;28;1055;-64
2022/06/09 02:37:04;;;;;;;;;;;;;;;-145.88;100.00;58037.16;2065632;28;1018;-64
2022/06/09 02:38:06;;;;;;;;;;;;;;;-145.88;100.00;58037.16;2057291;28;1122;-65
2022/06/09 02:39:09;;;;;;;;;;;;;;;-145.88;100.00;58037.16;2066700;28;1301;-64
2022/06/09 02:40:11;;;;;;;;;;;;;;;-145.88;100.00;58037.16;2066989;28;1586;-64
2022/06/09 02:41:14;;;;;;;;;;;;;;;-145.88;100.00;58037.16;2067092;28;1119;-64
2022/06/09 02:42:16;;;;;;;;;;;;;;;-145.88;100.00;58037.16;2060265;28;1796;-65
2022/06/09 02:43:19;;;;;;;;;;;;;;;-145.88;100.00;58037.16;2067069;28;1123;-65
2022/06/09 02:44:22;;;;;;;;;;;;;;;-145.88;100.00;58037.16;2066956;28;1861;-64
2022/06/09 02:45:25;;;;;;;;;;;;;;;-145.88;100.00;58037.16;2067017;28;1075;-64
2022/06/09 02:46:26;;;;;;;;;;;;;;;-145.88;100.00;58037.16;2067122;28;911;-64
2022/06/09 02:47:30;;;;;;;;;;;;;;;-145.88;100.00;58037.16;2067092;28;1102;-64
2022/06/09 02:48:32;;;;;;;;;;;;;;;-145.88;100.00;58037.16;2067448;28;1074;-65
2022/06/09 02:49:36;;;;;;;;;;;;;;;-145.88;100.00;58037.16;2058675;28;1530;-66
2022/06/09 02:50:38;;;;;;;;;;;;;;;-145.88;100.00;58037.16;2066725;28;1989;-66
2022/06/09 02:51:42;;;;;;;;;;;;;;;-145.88;100.00;58037.16;2066641;28;1800;-65
2022/06/09 02:52:44;;;;;;;;;;;;;;;-145.88;100.00;58037.16;2064058;28;1714;-65
2022/06/09 02:53:46;;;;;;;;;;;;;;;-145.88;100.00;58037.16;2066271;28;1588;-64
2022/06/09 02:54:48;;;;;;;;;;;;;;;-145.88;100.00;58037.16;2067064;28;1189;-65
2022/06/09 02:55:51;;;;;;;;;;;;;;;-145.88;100.00;58037.16;2063999;28;1863;-64
2022/06/09 02:56:53;;;;;;;;;;;;;;;-145.88;100.00;58037.16;2066171;28;1294;-64
2022/06/09 02:57:56;;;;;;;;;;;;;;;-145.88;100.00;58037.16;2066784;28;1294;-65
2022/06/09 02:58:59;;;;;;;;;;;;;;;-145.88;100.00;58037.16;2066666;28;1290;-64
2022/06/09 03:00:01;;;;;;;;;;;;;;;-145.88;100.00;58037.16;2062177;28;1279;-71
2022/06/09 03:01:04;;;;;;;;;;;;;;;-145.88;100.00;58037.16;2061594;28;1289;-64
2022/06/09 03:02:06;;;;;;;;;;;;;;;-145.88;100.00;58037.16;2066272;28;1536;-66
2022/06/09 03:03:12;;;;;;;;;;;;;;;-145.88;100.00;58037.16;2063876;28;1945;-65
2022/06/09 03:04:15;;;;;;;;;;;;;;;-145.88;100.00;58037.16;2059063;28;1127;-67
2022/06/09 03:05:18;;;;;;;;;;;;;;;-145.88;100.00;58037.16;2059173;28;1311;-64
2022/06/09 03:06:21;;;;;;;;;;;;;;;-145.88;100.00;58037.16;2059249;28;1111;-66
2022/06/09 03:07:24;;;;;;;;;;;;;;;-145.88;100.00;58037.16;2058902;28;1741;-65
2022/06/09 03:08:27;;;;;;;;;;;;;;;-145.88;100.00;58037.16;2059351;28;1035;-65
2022/06/09 03:09:29;;;;;;;;;;;;;;;-145.88;100.00;58037.16;2059247;28;1022;-67
2022/06/09 03:10:32;;;;;;;;;;;;;;;-145.88;100.00;58037.16;2059286;28;1743;-66
2022/06/09 03:11:34;;;;;;;;;;;;;;;-145.88;100.00;58037.16;2056143;28;1910;-65
2022/06/09 03:12:37;;;;;;;;;;;;;;;-145.88;100.00;58037.16;2059008;28;1696;-66
2022/06/09 03:13:39;;;;;;;;;;;;;;;-145.88;100.00;58037.16;2067083;28;1189;-65
2022/06/09 03:14:42;;;;;;;;;;;;;;;-145.88;100.00;58037.16;2065596;28;1776;-65
2022/06/09 03:15:47;;;;;;;;;;;;;;;-145.88;100.00;58037.16;2059603;28;1789;-65
2022/06/09 03:16:50;;;;;;;;;;;;;;;-145.88;100.00;58037.16;2058841;28;1047;-65
2022/06/09 03:17:52;;;;;;;;;;;;;;;-145.88;100.00;58037.16;2062751;28;1803;-69
2022/06/09 03:18:55;;;;;;;;;;;;;;;-145.88;100.00;58037.16;2063072;28;1612;-65
2022/06/09 03:19:57;;;;;;;;;;;;;;;-145.88;100.00;58037.16;2065274;28;1493;-65
2022/06/09 03:21:01;;;;;;;;;;;;;;;-145.88;100.00;58037.16;2058925;28;1075;-65
2022/06/09 03:22:03;;;;;;;;;;;;;;;-145.88;100.00;58037.16;2061915;28;1273;-66
2022/06/09 03:23:06;;;;;;;;;;;;;;;-145.88;100.00;58037.16;2063622;28;1077;-67
2022/06/09 03:24:09;;;;;;;;;;;;;;;-145.88;100.00;58037.16;2060484;28;1548;-66
2022/06/09 03:25:12;;;;;;;;;;;;;;;-145.88;100.00;58037.16;2062542;28;1588;-65
2022/06/09 03:26:14;;;;;;;;;;;;;;;-145.88;100.00;58037.16;2066962;28;1151;-65
2022/06/09 03:27:17;;;;;;;;;;;;;;;-145.88;100.00;58037.16;2067152;28;1089;-66
2022/06/09 03:28:18;;;;;;;;;;;;;;;-145.88;100.00;58037.16;2067049;28;1297;-65
2022/06/09 03:29:22;;;;;;;;;;;;;;;-145.88;100.00;58037.16;2066109;28;1591;-65
2022/06/09 03:30:24;;;;;;;;;;;;;;;-145.88;100.00;58037.16;2065126;28;1874;-65
2022/06/09 03:31:27;;;;;;;;;;;;;;;-145.88;100.00;58037.16;2066806;28;1907;-65
2022/06/09 03:32:29;;;;;;;;;;;;;;;-145.88;100.00;58037.16;2066750;28;1403;-65
2022/06/09 03:33:32;;;;;;;;;;;;;;;-145.88;100.00;58037.16;2066750;28;1520;-66
2022/06/09 03:34:34;;;;;;;;;;;;;;;-145.88;100.00;58037.16;2061836;28;1458;-65
2022/06/09 03:35:38;;;;;;;;;;;;;;;-145.88;100.00;58037.16;2065628;28;1505;-65
2022/06/09 03:36:43;;;;;;;;;;;;;;;-145.88;100.00;58037.16;2066335;28;1736;-72
2022/06/09 03:37:44;;;;;;;;;;;;;;;-145.88;100.00;58037.16;2058584;28;1514;-70
2022/06/09 03:38:47;;;;;;;;;;;;;;;-145.88;100.00;58037.16;2060186;28;1433;-73
2022/06/09 03:39:49;;;;;;;;;;;;;;;-145.88;100.00;58037.16;2060282;28;1795;-66
2022/06/09 03:40:52;;;;;;;;;;;;;;;-145.88;100.00;58037.16;2060322;28;1533;-66
2022/06/09 03:41:54;;;;;;;;;;;;;;;-145.88;100.00;58037.16;2066815;28;1126;-66
2022/06/09 03:42:57;;;;;;;;;;;;;;;-145.88;100.00;58037.16;2066818;28;1161;-65
2022/06/09 03:43:58;;;;;;;;;;;;;;;-145.88;100.00;58037.16;2066910;28;1054;-66
2022/06/09 03:45:01;;;;;;;;;;;;;;;-145.88;100.00;58037.16;2066526;28;1509;-66
2022/06/09 03:46:03;;;;;;;;;;;;;;;-145.88;100.00;58037.16;2058982;28;1143;-66
2022/06/09 03:47:07;;;;;;;;;;;;;;;-145.88;100.00;58037.16;2066380;28;1073;-65
2022/06/09 03:48:09;;;;;;;;;;;;;;;-145.88;100.00;58037.16;2065314;28;1768;-66
2022/06/09 03:49:12;;;;;;;;;;;;;;;-145.88;100.00;58037.16;2058524;28;1109;-67
2022/06/09 03:50:15;;;;;;;;;;;;;;;-145.88;100.00;58037.16;2060472;28;1421;-65
2022/06/09 03:51:17;;;;;;;;;;;;;;;-145.88;100.00;58037.16;2063390;28;1454;-68
2022/06/09 03:52:21;;;;;;;;;;;;;;;-145.88;100.00;58037.16;2066260;28;1035;-65
2022/06/09 03:53:23;;;;;;;;;;;;;;;-145.88;100.00;58037.16;2064854;28;1422;-64
2022/06/09 03:54:25;;;;;;;;;;;;;;;-145.88;100.00;58037.16;2066782;28;1016;-69
2022/06/09 03:55:28;;;;;;;;;;;;;;;-145.88;100.00;58037.16;2065315;28;1458;-63
2022/06/09 03:56:31;;;;;;;;;;;;;;;-145.88;100.00;58037.16;2066585;28;1118;-66
2022/06/09 03:57:33;;;;;;;;;;;;;;;-145.88;100.00;58037.16;2059920;28;1276;-65
2022/06/09 03:58:36;;;;;;;;;;;;;;;-145.88;100.00;58037.16;2061742;28;1787;-67
2022/06/09 03:59:38;;;;;;;;;;;;;;;-145.88;100.00;58037.16;2064956;28;1727;-65
2022/06/09 04:00:44;;;;;;;;;;;;;;;-145.88;100.00;58037.16;2058609;28;1544;-65
2022/06/09 04:01:46;;;;;;;;;;;;;;;-145.88;100.00;58037.16;2058417;28;1169;-64
2022/06/09 04:02:49;;;;;;;;;;;;;;;-145.88;100.00;58037.16;2059401;28;1517;-67
2022/06/09 04:03:51;;;;;;;;;;;;;;;-145.88;100.00;58037.16;2061304;28;1528;-65
2022/06/09 04:04:55;;;;;;;;;;;;;;;-145.88;100.00;58037.16;2059675;28;1547;-64
2022/06/09 04:05:58;;;;;;;;;;;;;;;-145.88;100.00;58037.16;2066535;28;1175;-66
2022/06/09 04:07:04;;;;;;;;;;;;;;;-145.88;100.00;58037.16;2066255;28;1135;-65
2022/06/09 04:08:11;;;;;;;;;;;;;;;-145.88;100.00;58037.16;2063146;28;1123;-65
2022/06/09 04:09:13;;;;;;;;;;;;;;;-145.88;100.00;58037.16;2057692;28;1638;-65
2022/06/09 04:10:18;;;;;;;;;;;;;;;-145.88;100.00;58037.16;2062341;28;1717;-64
2022/06/09 04:11:21;;;;;;;;;;;;;;;-145.88;100.00;58037.16;2065511;28;1542;-65
2022/06/09 04:12:24;;;;;;;;;;;;;;;-145.88;100.00;58037.16;2065982;28;2033;-68
2022/06/09 04:13:26;;;;;;;;;;;;;;;-145.88;100.00;58037.16;2064166;28;1563;-68
2022/06/09 04:14:29;;;;;;;;;;;;;;;-145.88;100.00;58037.16;2064623;28;1759;-66
2022/06/09 04:15:31;;;;;;;;;;;;;;;-145.88;100.00;58037.16;2066417;28;1627;-66
2022/06/09 04:16:36;;;;;;;;;;;;;;;-145.88;100.00;58037.16;2066548;28;1034;-66
2022/06/09 04:17:38;;;;;;;;;;;;;;;-145.88;100.00;58037.16;2066661;28;1544;-68
2022/06/09 04:18:41;;;;;;;;;;;;;;;-145.88;100.00;58037.16;2064285;28;1473;-66
2022/06/09 04:19:44;;;;;;;;;;;;;;;-145.88;100.00;58037.16;2055245;28;1328;-69
2022/06/09 04:20:46;;;;;;;;;;;;;;;-145.88;100.00;58037.16;2055047;28;1110;-68
2022/06/09 04:21:49;;;;;;;;;;;;;;;-145.88;100.00;58037.16;2057887;28;1322;-68
2022/06/09 04:22:51;;;;;;;;;;;;;;;-145.88;100.00;58037.16;2058874;28;1204;-67
2022/06/09 04:23:55;;;;;;;;;;;;;;;-145.88;100.00;58037.16;2058799;28;1259;-68
2022/06/09 04:24:57;;;;;;;;;;;;;;;-145.88;100.00;58037.16;2058555;28;1062;-68
2022/06/09 04:26:00;;;;;;;;;;;;;;;-145.88;100.00;58037.16;2058781;28;1275;-67
2022/06/09 04:27:02;;;;;;;;;;;;;;;-145.88;100.00;58037.16;2058686;28;1054;-67
2022/06/09 04:28:05;;;;;;;;;;;;;;;-145.88;100.00;58037.16;2058554;28;1058;-67
2022/06/09 04:29:08;;;;;;;;;;;;;;;-145.88;100.00;58037.16;2058542;28;1004;-67
2022/06/09 04:30:12;;;;;;;;;;;;;;;-145.88;100.00;58037.16;2058458;28;1373;-67
2022/06/09 04:31:15;;;;;;;;;;;;;;;-145.88;100.00;58037.16;2055288;28;1490;-67
2022/06/09 04:32:17;;;;;;;;;;;;;;;-145.88;100.00;58037.16;2055460;28;1899;-67
2022/06/09 04:33:20;;;;;;;;;;;;;;;-145.88;100.00;58037.16;2058148;28;1003;-68
2022/06/09 04:34:21;;;;;;;;;;;;;;;-145.88;100.00;58037.16;2058326;28;1546;-67
2022/06/09 04:35:24;;;;;;;;;;;;;;;-145.88;100.00;58037.16;2058394;28;1343;-68
2022/06/09 04:36:26;;;;;;;;;;;;;;;-145.88;100.00;58037.16;2057812;28;1066;-67
2022/06/09 04:38:56;;;;;;;;;;;;;;;-145.88;100.00;58037.16;2057793;28;1026;-67
2022/06/09 04:39:58;;;;;;;;;;;;;;;-145.88;100.00;58037.16;2057712;28;1193;-69
2022/06/09 04:41:02;;;;;;;;;;;;;;;-145.88;100.00;58037.16;2057980;28;1103;-68
2022/06/09 04:42:04;;;;;;;;;;;;;;;-145.88;100.00;58037.16;2055709;28;1011;-68
2022/06/09 04:43:08;;;;;;;;;;;;;;;-145.88;100.00;58037.16;2054305;28;1583;-68
2022/06/09 04:44:11;;;;;;;;;;;;;;;-145.88;100.00;58037.16;2057346;28;1015;-67
2022/06/09 04:45:15;;;;;;;;;;;;;;;-145.88;100.00;58037.16;2057798;28;1081;-67
2022/06/09 04:46:18;;;;;;;;;;;;;;;-145.88;100.00;58037.16;2057812;28;1105;-69
2022/06/09 04:47:21;;;;;;;;;;;;;;;-145.88;100.00;58037.16;2058201;28;1049;-68
2022/06/09 04:48:24;;;;;;;;;;;;;;;-145.88;100.00;58037.16;2057725;28;999;-69
2022/06/09 04:49:25;;;;;;;;;;;;;;;-145.88;100.00;58037.16;2057759;28;1150;-68
2022/06/09 04:50:28;;;;;;;;;;;;;;;-145.88;100.00;58037.16;2057664;28;1027;-67
2022/06/09 04:51:31;;;;;;;;;;;;;;;-145.88;100.00;58037.16;2057650;28;1115;-67
2022/06/09 04:52:34;;;;;;;;;;;;;;;-145.88;100.00;58037.16;2058144;28;1899;-67
2022/06/09 04:53:36;;;;;;;;;;;;;;;-145.88;100.00;58037.16;2056161;28;1087;-67
2022/06/09 04:54:40;;;;;;;;;;;;;;;-145.88;100.00;58037.16;2054952;28;1200;-68
2022/06/09 04:55:43;;;;;;;;;;;;;;;-145.88;100.00;58037.16;2058355;28;992;-67
2022/06/09 04:56:46;;;;;;;;;;;;;;;-145.88;100.00;58037.16;2058215;28;1039;-68
2022/06/09 04:57:48;;;;;;;;;;;;;;;-145.88;100.00;58037.16;2058177;28;1719;-67
2022/06/09 04:58:52;;;;;;;;;;;;;;;-145.88;100.00;58037.16;2057977;28;1211;-67
2022/06/09 04:59:54;;;;;;;;;;;;;;;-145.88;100.00;58037.16;2058186;28;1122;-67
2022/06/09 05:00:57;;;;;;;;;;;;;;;-145.88;100.00;58037.16;2058144;28;1487;-67
2022/06/09 05:01:59;;;;;;;;;;;;;;;-145.88;100.00;58037.16;2057313;28;1115;-67
2022/06/09 05:03:11;;;;;;;;;;;;;;;-145.88;100.00;58037.16;2057863;28;1225;-70
2022/06/09 05:04:14;;;;;;;;;;;;;;;-145.88;100.00;58037.16;2058258;28;1039;-68
2022/06/09 05:05:17;;;;;;;;;;;;;;;-145.88;100.00;58037.16;2054677;28;1277;-67
2022/06/09 05:06:21;;;;;;;;;;;;;;;-145.88;100.00;58037.16;2054746;28;1131;-67
2022/06/09 05:07:23;;;;;;;;;;;;;;;-145.88;100.00;58037.16;2058210;28;1121;-67
2022/06/09 05:08:26;;;;;;;;;;;;;;;-145.88;100.00;58037.16;2058093;28;1127;-67
2022/06/09 05:09:28;;;;;;;;;;;;;;;-145.88;100.00;58037.16;2058220;28;1692;-67
2022/06/09 05:10:33;;;;;;;;;;;;;;;-145.88;100.00;58037.16;2058043;28;1039;-69
2022/06/09 05:11:35;;;;;;;;;;;;;;;-145.88;100.00;58037.16;2058154;28;1043;-67
2022/06/09 05:12:38;;;;;;;;;;;;;;;-145.88;100.00;58037.16;2058231;28;1907;-68
2022/06/09 05:13:40;;;;;;;;;;;;;;;-145.88;100.00;58037.16;2057904;28;1994;-67
2022/06/09 05:14:42;;;;;;;;;;;;;;;-145.88;100.00;58037.16;2058089;28;1090;-69
2022/06/09 05:15:47;;;;;;;;;;;;;;;-145.88;100.00;58037.16;2058110;28;1051;-67
2022/06/09 05:16:49;;;;;;;;;;;;;;;-145.88;100.00;58037.16;2052968;28;1198;-71
2022/06/09 05:17:52;;;;;;;;;;;;;;;-145.88;100.00;58037.16;2057609;28;1261;-67
2022/06/09 05:18:55;;;;;;;;;;;;;;;-145.88;100.00;58037.16;2058005;28;1773;-67
2022/06/09 05:19:57;;;;;;;;;;;;;;;-145.88;100.00;58037.16;2058058;28;1055;-70
2022/06/09 05:21:01;;;;;;;;;;;;;;;-145.88;100.00;58037.16;2057768;28;1127;-67
2022/06/09 05:22:03;;;;;;;;;;;;;;;-145.88;100.00;58037.16;2057942;28;1154;-67
2022/06/09 05:23:06;;;;;;;;;;;;;;;-145.88;100.00;58037.16;2057834;28;1170;-67
2022/06/09 05:24:11;;;;;;;;;;;;;;;-145.88;100.00;58037.16;2058131;28;1123;-68
2022/06/09 05:25:14;;;;;;;;;;;;;;;-145.88;100.00;58037.16;2058162;28;1057;-68